sensor_id;sensor_type;location;lat;lon;timestamp;temperature;humidity
38606;DHT22;24365;48.446;8.850;2023-03-23T00:04:12;10.40;52.70
38606;DHT22;24365;48.446;8.850;2023-03-23T00:09:14;10.40;52.60
38606;DHT22;24365;48.446;8.850;2023-03-23T00:14:16;10.40;53.40
38606;DHT22;24365;48.446;8.850;2023-03-23T00:19:17;10.40;52.90
38606;DHT22;24365;48.446;8.850;2023-03-23T00:24:19;10.30;53.00
38606;DHT22;24365;48.446;8.850;2023-03-23T00:29:21;10.30;53.40
38606;DHT22;24365;48.446;8.850;2023-03-23T00:34:24;10.20;53.40
38606;DHT22;24365;48.446;8.850;2023-03-23T00:39:26;10.20;53.50
38606;DHT22;24365;48.446;8.850;2023-03-23T00:44:28;10.10;54.00
38606;DHT22;24365;48.446;8.850;2023-03-23T00:49:30;10.10;54.40
38606;DHT22;24365;48.446;8.850;2023-03-23T00:54:35;10.20;54.30
38606;DHT22;24365;48.446;8.850;2023-03-23T00:59:38;10.20;54.20
38606;DHT22;24365;48.446;8.850;2023-03-23T01:04:39;10.10;54.20
38606;DHT22;24365;48.446;8.850;2023-03-23T01:09:40;10.10;54.30
38606;DHT22;24365;48.446;8.850;2023-03-23T01:14:41;10.10;54.40
38606;DHT22;24365;48.446;8.850;2023-03-23T01:19:42;10.00;54.50
38606;DHT22;24365;48.446;8.850;2023-03-23T01:24:43;10.00;54.50
38606;DHT22;24365;48.446;8.850;2023-03-23T01:29:43;10.00;54.90
38606;DHT22;24365;48.446;8.850;2023-03-23T01:34:44;10.00;54.80
38606;DHT22;24365;48.446;8.850;2023-03-23T01:39:45;9.90;55.00
38606;DHT22;24365;48.446;8.850;2023-03-23T01:49:49;9.90;55.10
38606;DHT22;24365;48.446;8.850;2023-03-23T01:54:52;10.00;55.20
38606;DHT22;24365;48.446;8.850;2023-03-23T01:59:54;9.90;55.30
38606;DHT22;24365;48.446;8.850;2023-03-23T02:04:59;9.90;55.50
38606;DHT22;24365;48.446;8.850;2023-03-23T02:10:04;9.90;55.60
38606;DHT22;24365;48.446;8.850;2023-03-23T02:15:08;9.80;55.70
38606;DHT22;24365;48.446;8.850;2023-03-23T02:31:01;9.80;57.10
38606;DHT22;24365;48.446;8.850;2023-03-23T02:41:14;9.80;58.00
38606;DHT22;24365;48.446;8.850;2023-03-23T02:46:16;10.00;57.30
38606;DHT22;24365;48.446;8.850;2023-03-23T02:51:18;10.20;55.90
38606;DHT22;24365;48.446;8.850;2023-03-23T02:56:20;10.40;55.00
38606;DHT22;24365;48.446;8.850;2023-03-23T03:06:31;10.50;54.70
38606;DHT22;24365;48.446;8.850;2023-03-23T03:11:34;10.50;54.70
38606;DHT22;24365;48.446;8.850;2023-03-23T03:16:50;10.50;54.50
38606;DHT22;24365;48.446;8.850;2023-03-23T03:21:53;10.60;54.40
38606;DHT22;24365;48.446;8.850;2023-03-23T03:27:04;10.50;54.30
38606;DHT22;24365;48.446;8.850;2023-03-23T03:37:49;10.50;54.90
38606;DHT22;24365;48.446;8.850;2023-03-23T03:42:52;10.50;55.20
38606;DHT22;24365;48.446;8.850;2023-03-23T03:47:53;10.50;55.10
38606;DHT22;24365;48.446;8.850;2023-03-23T03:52:54;10.60;55.40
38606;DHT22;24365;48.446;8.850;2023-03-23T03:57:54;10.70;54.20
38606;DHT22;24365;48.446;8.850;2023-03-23T04:03:16;10.70;53.90
38606;DHT22;24365;48.446;8.850;2023-03-23T04:08:28;10.80;53.40
38606;DHT22;24365;48.446;8.850;2023-03-23T04:13:29;10.80;54.10
38606;DHT22;24365;48.446;8.850;2023-03-23T04:18:50;10.80;53.20
38606;DHT22;24365;48.446;8.850;2023-03-23T04:23:52;10.60;54.20
38606;DHT22;24365;48.446;8.850;2023-03-23T04:28:55;10.60;54.50
38606;DHT22;24365;48.446;8.850;2023-03-23T04:34:19;10.50;54.90
38606;DHT22;24365;48.446;8.850;2023-03-23T04:39:22;10.50;54.90
38606;DHT22;24365;48.446;8.850;2023-03-23T04:44:26;10.40;55.20
38606;DHT22;24365;48.446;8.850;2023-03-23T04:49:42;10.40;55.50
38606;DHT22;24365;48.446;8.850;2023-03-23T04:54:54;10.40;55.40
38606;DHT22;24365;48.446;8.850;2023-03-23T04:59:56;10.40;54.90
38606;DHT22;24365;48.446;8.850;2023-03-23T05:05:11;10.40;55.00
38606;DHT22;24365;48.446;8.850;2023-03-23T05:10:13;10.40;55.20
38606;DHT22;24365;48.446;8.850;2023-03-23T05:15:14;10.40;55.20
38606;DHT22;24365;48.446;8.850;2023-03-23T05:20:17;10.40;55.20
38606;DHT22;24365;48.446;8.850;2023-03-23T05:25:24;10.50;55.10
38606;DHT22;24365;48.446;8.850;2023-03-23T05:30:33;10.50;54.80
38606;DHT22;24365;48.446;8.850;2023-03-23T05:35:34;10.50;54.90
38606;DHT22;24365;48.446;8.850;2023-03-23T05:40:36;10.40;55.10
38606;DHT22;24365;48.446;8.850;2023-03-23T05:45:47;10.40;55.20
38606;DHT22;24365;48.446;8.850;2023-03-23T05:50:49;10.50;55.50
38606;DHT22;24365;48.446;8.850;2023-03-23T05:55:57;10.30;56.00
38606;DHT22;24365;48.446;8.850;2023-03-23T06:01:13;10.30;56.90
38606;DHT22;24365;48.446;8.850;2023-03-23T06:06:15;10.30;57.10
38606;DHT22;24365;48.446;8.850;2023-03-23T06:11:26;10.30;58.00
38606;DHT22;24365;48.446;8.850;2023-03-23T06:16:47;10.30;58.00
38606;DHT22;24365;48.446;8.850;2023-03-23T06:21:49;10.50;56.90
38606;DHT22;24365;48.446;8.850;2023-03-23T06:27:00;10.70;57.30
38606;DHT22;24365;48.446;8.850;2023-03-23T06:32:02;10.80;56.00
38606;DHT22;24365;48.446;8.850;2023-03-23T06:37:05;11.10;56.10
38606;DHT22;24365;48.446;8.850;2023-03-23T06:42:32;11.20;55.60
38606;DHT22;24365;48.446;8.850;2023-03-23T06:47:52;11.40;53.70
38606;DHT22;24365;48.446;8.850;2023-03-23T06:52:53;11.60;53.90
38606;DHT22;24365;48.446;8.850;2023-03-23T06:57:54;11.80;52.40
38606;DHT22;24365;48.446;8.850;2023-03-23T07:02:55;12.00;51.40
38606;DHT22;24365;48.446;8.850;2023-03-23T07:07:56;12.10;51.70
38606;DHT22;24365;48.446;8.850;2023-03-23T07:13:05;12.20;51.50
38606;DHT22;24365;48.446;8.850;2023-03-23T07:18:17;12.30;51.70
38606;DHT22;24365;48.446;8.850;2023-03-23T07:23:21;12.40;51.00
38606;DHT22;24365;48.446;8.850;2023-03-23T07:28:31;12.40;50.30
38606;DHT22;24365;48.446;8.850;2023-03-23T07:33:39;12.50;50.50
38606;DHT22;24365;48.446;8.850;2023-03-23T07:38:41;12.60;50.30
38606;DHT22;24365;48.446;8.850;2023-03-23T07:43:42;12.60;50.30
38606;DHT22;24365;48.446;8.850;2023-03-23T07:48:43;12.80;50.50
38606;DHT22;24365;48.446;8.850;2023-03-23T07:53:45;13.00;50.30
38606;DHT22;24365;48.446;8.850;2023-03-23T07:59:07;13.30;49.50
38606;DHT22;24365;48.446;8.850;2023-03-23T08:04:11;13.70;48.30
38606;DHT22;24365;48.446;8.850;2023-03-23T08:09:39;14.00;49.00
38606;DHT22;24365;48.446;8.850;2023-03-23T08:14:59;14.30;46.80
38606;DHT22;24365;48.446;8.850;2023-03-23T08:20:20;14.50;46.90
38606;DHT22;24365;48.446;8.850;2023-03-23T08:25:46;14.70;46.00
38606;DHT22;24365;48.446;8.850;2023-03-23T08:31:17;14.80;46.10
38606;DHT22;24365;48.446;8.850;2023-03-23T08:36:46;14.80;45.70
38606;DHT22;24365;48.446;8.850;2023-03-23T08:42:02;14.80;46.70
38606;DHT22;24365;48.446;8.850;2023-03-23T08:47:22;14.80;47.10
38606;DHT22;24365;48.446;8.850;2023-03-23T08:52:43;14.80;47.20
38606;DHT22;24365;48.446;8.850;2023-03-23T08:58:22;14.80;46.90
38606;DHT22;24365;48.446;8.850;2023-03-23T09:03:35;14.80;47.60
38606;DHT22;24365;48.446;8.850;2023-03-23T09:09:09;14.80;47.20
38606;DHT22;24365;48.446;8.850;2023-03-23T09:14:10;14.80;47.40
38606;DHT22;24365;48.446;8.850;2023-03-23T09:19:11;14.80;47.50
38606;DHT22;24365;48.446;8.850;2023-03-23T09:24:13;15.00;49.20
38606;DHT22;24365;48.446;8.850;2023-03-23T09:29:14;15.20;48.00
38606;DHT22;24365;48.446;8.850;2023-03-23T09:34:16;15.40;47.30
38606;DHT22;24365;48.446;8.850;2023-03-23T09:39:20;15.50;45.80
38606;DHT22;24365;48.446;8.850;2023-03-23T09:54:46;15.80;45.20
38606;DHT22;24365;48.446;8.850;2023-03-23T10:00:02;15.90;44.90
38606;DHT22;24365;48.446;8.850;2023-03-23T10:05:25;16.10;44.70
38606;DHT22;24365;48.446;8.850;2023-03-23T10:10:37;16.30;43.60
38606;DHT22;24365;48.446;8.850;2023-03-23T10:15:40;16.20;42.90
38606;DHT22;24365;48.446;8.850;2023-03-23T10:20:55;16.20;43.60
38606;DHT22;24365;48.446;8.850;2023-03-23T10:31:18;15.90;44.00
38606;DHT22;24365;48.446;8.850;2023-03-23T10:36:24;15.80;44.90
38606;DHT22;24365;48.446;8.850;2023-03-23T10:41:28;16.00;45.30
38606;DHT22;24365;48.446;8.850;2023-03-23T10:51:34;16.20;44.80
38606;DHT22;24365;48.446;8.850;2023-03-23T10:56:40;16.40;43.60
38606;DHT22;24365;48.446;8.850;2023-03-23T11:01:42;16.50;44.50
38606;DHT22;24365;48.446;8.850;2023-03-23T11:06:54;16.70;43.80
38606;DHT22;24365;48.446;8.850;2023-03-23T11:11:58;16.80;42.30
38606;DHT22;24365;48.446;8.850;2023-03-23T11:17:02;16.80;42.50
38606;DHT22;24365;48.446;8.850;2023-03-23T11:27:07;16.80;40.90
38606;DHT22;24365;48.446;8.850;2023-03-23T11:32:10;17.00;40.70
38606;DHT22;24365;48.446;8.850;2023-03-23T11:47:37;17.30;38.80
38606;DHT22;24365;48.446;8.850;2023-03-23T11:58:00;17.30;39.20
38606;DHT22;24365;48.446;8.850;2023-03-23T12:03:05;17.30;39.00
38606;DHT22;24365;48.446;8.850;2023-03-23T12:23:44;17.70;37.00
38606;DHT22;24365;48.446;8.850;2023-03-23T12:49:48;17.40;37.00
38606;DHT22;24365;48.446;8.850;2023-03-23T12:54:56;17.60;36.80
38606;DHT22;24365;48.446;8.850;2023-03-23T13:00:19;17.60;37.00
38606;DHT22;24365;48.446;8.850;2023-03-23T13:10:26;17.80;36.70
38606;DHT22;24365;48.446;8.850;2023-03-23T13:15:37;17.90;36.50
38606;DHT22;24365;48.446;8.850;2023-03-23T13:30:57;18.10;36.70
38606;DHT22;24365;48.446;8.850;2023-03-23T13:36:09;18.10;36.40
38606;DHT22;24365;48.446;8.850;2023-03-23T13:41:11;18.30;36.50
38606;DHT22;24365;48.446;8.850;2023-03-23T14:02:26;17.90;35.90
38606;DHT22;24365;48.446;8.850;2023-03-23T14:07:18;17.90;35.20
38606;DHT22;24365;48.446;8.850;2023-03-23T14:12:27;17.70;35.20
38606;DHT22;24365;48.446;8.850;2023-03-23T14:17:30;17.70;35.70
38606;DHT22;24365;48.446;8.850;2023-03-23T14:22:33;17.60;35.70
38606;DHT22;24365;48.446;8.850;2023-03-23T14:27:34;17.60;36.00
38606;DHT22;24365;48.446;8.850;2023-03-23T14:32:35;17.60;35.90
38606;DHT22;24365;48.446;8.850;2023-03-23T14:37:36;17.60;36.20
38606;DHT22;24365;48.446;8.850;2023-03-23T14:42:37;17.60;36.60
38606;DHT22;24365;48.446;8.850;2023-03-23T14:47:39;17.50;35.90
38606;DHT22;24365;48.446;8.850;2023-03-23T14:52:41;17.40;36.80
38606;DHT22;24365;48.446;8.850;2023-03-23T14:57:41;17.40;35.20
38606;DHT22;24365;48.446;8.850;2023-03-23T15:02:44;17.30;35.20
38606;DHT22;24365;48.446;8.850;2023-03-23T15:07:46;17.20;35.70
38606;DHT22;24365;48.446;8.850;2023-03-23T15:12:48;17.20;36.10
38606;DHT22;24365;48.446;8.850;2023-03-23T15:17:49;17.10;36.00
38606;DHT22;24365;48.446;8.850;2023-03-23T15:22:51;17.00;36.60
38606;DHT22;24365;48.446;8.850;2023-03-23T15:27:53;17.00;36.40
38606;DHT22;24365;48.446;8.850;2023-03-23T15:32:59;16.90;37.10
38606;DHT22;24365;48.446;8.850;2023-03-23T15:38:02;16.90;37.40
38606;DHT22;24365;48.446;8.850;2023-03-23T15:43:20;16.80;37.10
38606;DHT22;24365;48.446;8.850;2023-03-23T15:48:24;16.70;36.90
38606;DHT22;24365;48.446;8.850;2023-03-23T15:53:26;16.60;38.00
38606;DHT22;24365;48.446;8.850;2023-03-23T15:58:28;16.60;37.70
38606;DHT22;24365;48.446;8.850;2023-03-23T16:03:37;16.50;38.60
38606;DHT22;24365;48.446;8.850;2023-03-23T16:08:39;16.60;38.40
38606;DHT22;24365;48.446;8.850;2023-03-23T16:13:43;16.60;38.40
38606;DHT22;24365;48.446;8.850;2023-03-23T16:18:44;16.60;38.40
38606;DHT22;24365;48.446;8.850;2023-03-23T16:23:45;16.60;38.60
38606;DHT22;24365;48.446;8.850;2023-03-23T16:28:46;16.50;39.40
38606;DHT22;24365;48.446;8.850;2023-03-23T16:33:47;16.50;39.40
38606;DHT22;24365;48.446;8.850;2023-03-23T16:38:48;16.40;39.60
38606;DHT22;24365;48.446;8.850;2023-03-23T16:43:51;16.40;40.40
38606;DHT22;24365;48.446;8.850;2023-03-23T16:48:52;16.30;40.50
38606;DHT22;24365;48.446;8.850;2023-03-23T16:53:53;16.30;40.90
38606;DHT22;24365;48.446;8.850;2023-03-23T16:58:54;16.10;41.90
38606;DHT22;24365;48.446;8.850;2023-03-23T17:03:55;16.10;41.70
38606;DHT22;24365;48.446;8.850;2023-03-23T17:08:56;16.10;43.10
38606;DHT22;24365;48.446;8.850;2023-03-23T17:13:57;15.90;43.80
38606;DHT22;24365;48.446;8.850;2023-03-23T17:18:57;15.90;43.00
38606;DHT22;24365;48.446;8.850;2023-03-23T17:23:58;15.80;43.00
38606;DHT22;24365;48.446;8.850;2023-03-23T17:28:59;15.80;42.60
38606;DHT22;24365;48.446;8.850;2023-03-23T17:34:00;15.70;42.50
38606;DHT22;24365;48.446;8.850;2023-03-23T17:39:01;15.50;43.60
38606;DHT22;24365;48.446;8.850;2023-03-23T17:44:02;15.50;43.60
38606;DHT22;24365;48.446;8.850;2023-03-23T17:49:03;15.40;43.30
38606;DHT22;24365;48.446;8.850;2023-03-23T17:54:05;15.40;44.00
38606;DHT22;24365;48.446;8.850;2023-03-23T17:59:06;15.20;44.40
38606;DHT22;24365;48.446;8.850;2023-03-23T18:04:07;15.00;45.80
38606;DHT22;24365;48.446;8.850;2023-03-23T18:09:08;14.90;45.80
38606;DHT22;24365;48.446;8.850;2023-03-23T18:14:09;14.80;46.30
38606;DHT22;24365;48.446;8.850;2023-03-23T18:19:10;14.80;46.50
38606;DHT22;24365;48.446;8.850;2023-03-23T18:24:11;14.80;46.40
38606;DHT22;24365;48.446;8.850;2023-03-23T18:29:12;14.70;46.80
38606;DHT22;24365;48.446;8.850;2023-03-23T18:34:13;14.60;46.60
38606;DHT22;24365;48.446;8.850;2023-03-23T18:39:14;14.50;47.50
38606;DHT22;24365;48.446;8.850;2023-03-23T18:44:15;14.50;47.10
38606;DHT22;24365;48.446;8.850;2023-03-23T18:49:16;14.40;47.70
38606;DHT22;24365;48.446;8.850;2023-03-23T18:54:17;14.30;48.00
38606;DHT22;24365;48.446;8.850;2023-03-23T18:59:18;14.20;48.40
38606;DHT22;24365;48.446;8.850;2023-03-23T19:04:18;14.20;48.60
38606;DHT22;24365;48.446;8.850;2023-03-23T19:09:21;14.20;48.90
38606;DHT22;24365;48.446;8.850;2023-03-23T19:14:23;14.00;49.20
38606;DHT22;24365;48.446;8.850;2023-03-23T19:19:24;14.00;49.40
38606;DHT22;24365;48.446;8.850;2023-03-23T19:24:25;13.90;49.30
38606;DHT22;24365;48.446;8.850;2023-03-23T19:29:29;13.90;49.70
38606;DHT22;24365;48.446;8.850;2023-03-23T19:34:30;13.80;49.90
38606;DHT22;24365;48.446;8.850;2023-03-23T19:39:32;13.80;49.90
38606;DHT22;24365;48.446;8.850;2023-03-23T19:44:33;13.70;50.00
38606;DHT22;24365;48.446;8.850;2023-03-23T19:49:34;13.60;49.80
38606;DHT22;24365;48.446;8.850;2023-03-23T19:54:35;13.60;50.30
38606;DHT22;24365;48.446;8.850;2023-03-23T19:59:36;13.60;50.20
38606;DHT22;24365;48.446;8.850;2023-03-23T20:04:37;13.50;50.00
38606;DHT22;24365;48.446;8.850;2023-03-23T20:09:38;13.50;50.40
38606;DHT22;24365;48.446;8.850;2023-03-23T20:14:39;13.60;50.50
38606;DHT22;24365;48.446;8.850;2023-03-23T20:19:43;13.40;50.70
38606;DHT22;24365;48.446;8.850;2023-03-23T20:24:44;13.40;51.00
38606;DHT22;24365;48.446;8.850;2023-03-23T20:29:46;13.40;51.30
38606;DHT22;24365;48.446;8.850;2023-03-23T20:34:50;13.40;51.10
38606;DHT22;24365;48.446;8.850;2023-03-23T20:39:51;13.40;51.20
38606;DHT22;24365;48.446;8.850;2023-03-23T20:44:52;13.30;51.70
38606;DHT22;24365;48.446;8.850;2023-03-23T20:49:53;13.20;51.80
38606;DHT22;24365;48.446;8.850;2023-03-23T20:54:58;13.20;52.10
38606;DHT22;24365;48.446;8.850;2023-03-23T20:59:59;13.10;52.20
38606;DHT22;24365;48.446;8.850;2023-03-23T21:05:00;13.10;52.00
38606;DHT22;24365;48.446;8.850;2023-03-23T21:10:03;13.10;52.50
38606;DHT22;24365;48.446;8.850;2023-03-23T21:15:04;13.10;52.30
38606;DHT22;24365;48.446;8.850;2023-03-23T21:20:06;13.10;53.00
38606;DHT22;24365;48.446;8.850;2023-03-23T21:25:07;13.10;52.40
38606;DHT22;24365;48.446;8.850;2023-03-23T21:30:09;13.00;52.30
38606;DHT22;24365;48.446;8.850;2023-03-23T21:35:10;13.00;52.70
38606;DHT22;24365;48.446;8.850;2023-03-23T21:40:12;12.90;52.90
38606;DHT22;24365;48.446;8.850;2023-03-23T21:45:14;12.90;52.70
38606;DHT22;24365;48.446;8.850;2023-03-23T21:50:18;12.70;53.00
38606;DHT22;24365;48.446;8.850;2023-03-23T21:55:21;12.70;53.00
38606;DHT22;24365;48.446;8.850;2023-03-23T22:05:45;12.70;53.10
38606;DHT22;24365;48.446;8.850;2023-03-23T22:10:47;12.80;53.80
38606;DHT22;24365;48.446;8.850;2023-03-23T22:15:49;12.80;53.70
38606;DHT22;24365;48.446;8.850;2023-03-23T22:20:51;12.70;54.10
38606;DHT22;24365;48.446;8.850;2023-03-23T22:25:52;12.70;54.90
38606;DHT22;24365;48.446;8.850;2023-03-23T22:30:53;12.60;54.80
38606;DHT22;24365;48.446;8.850;2023-03-23T22:35:55;12.60;55.00
38606;DHT22;24365;48.446;8.850;2023-03-23T22:40:56;12.50;55.00
38606;DHT22;24365;48.446;8.850;2023-03-23T22:45:57;12.50;55.10
38606;DHT22;24365;48.446;8.850;2023-03-23T22:50:58;12.50;54.90
38606;DHT22;24365;48.446;8.850;2023-03-23T22:55:59;12.40;55.70
38606;DHT22;24365;48.446;8.850;2023-03-23T23:01:02;12.30;55.70
38606;DHT22;24365;48.446;8.850;2023-03-23T23:06:03;12.20;56.20
38606;DHT22;24365;48.446;8.850;2023-03-23T23:11:08;12.20;56.50
38606;DHT22;24365;48.446;8.850;2023-03-23T23:16:12;12.20;57.00
38606;DHT22;24365;48.446;8.850;2023-03-23T23:21:16;12.20;56.90
38606;DHT22;24365;48.446;8.850;2023-03-23T23:26:17;12.20;58.10
38606;DHT22;24365;48.446;8.850;2023-03-23T23:31:21;12.20;57.50
38606;DHT22;24365;48.446;8.850;2023-03-23T23:36:26;12.20;57.50
38606;DHT22;24365;48.446;8.850;2023-03-23T23:41:27;12.10;58.60
38606;DHT22;24365;48.446;8.850;2023-03-23T23:46:29;12.10;58.80
38606;DHT22;24365;48.446;8.850;2023-03-23T23:51:30;12.00;59.10
38606;DHT22;24365;48.446;8.850;2023-03-23T23:56:34;12.00;59.50
